createdAt,value
2022-07-29T00:00:24.042Z,0.00
2022-07-29T00:01:24.065Z,0.00
2022-07-29T00:02:24.136Z,0.00
2022-07-29T00:03:24.220Z,0.00
2022-07-29T00:04:24.230Z,0.00
2022-07-29T00:05:24.176Z,0.00
2022-07-29T00:06:24.168Z,0.00
2022-07-29T00:07:24.177Z,0.00
2022-07-29T00:08:24.207Z,0.00
2022-07-29T00:09:24.227Z,0.00
2022-07-29T00:10:24.264Z,0.00
2022-07-29T00:11:24.306Z,0.00
2022-07-29T00:12:26.339Z,0.00
2022-07-29T00:13:32.500Z,0.00
2022-07-29T00:14:24.355Z,0.00
2022-07-29T00:15:24.375Z,0.00
2022-07-29T00:16:24.399Z,0.00
2022-07-29T00:17:24.390Z,0.00
2022-07-29T00:18:24.416Z,0.00
2022-07-29T00:19:24.448Z,0.00
2022-07-29T00:20:24.467Z,0.00
2022-07-29T00:21:24.460Z,0.00
2022-07-29T00:22:24.477Z,0.00
2022-07-29T00:23:24.496Z,0.00
2022-07-29T00:24:24.525Z,0.00
2022-07-29T00:25:24.572Z,0.00
2022-07-29T00:26:24.559Z,0.00
2022-07-29T00:27:24.585Z,0.00
2022-07-29T00:28:24.618Z,0.00
2022-07-29T00:29:34.097Z,0.00
2022-07-29T00:30:24.697Z,0.00
2022-07-29T00:31:24.728Z,0.00
2022-07-29T00:32:24.714Z,0.00
2022-07-29T00:33:24.729Z,0.00
2022-07-29T00:34:24.753Z,0.00
2022-07-29T00:35:24.790Z,0.00
2022-07-29T00:36:24.788Z,0.00
2022-07-29T00:37:24.807Z,0.00
2022-07-29T00:38:24.801Z,0.00
2022-07-29T00:39:24.830Z,0.00
2022-07-29T00:40:24.856Z,0.00
2022-07-29T00:41:24.833Z,0.00
2022-07-29T00:42:24.863Z,0.00
2022-07-29T00:43:24.898Z,0.00
2022-07-29T00:44:24.926Z,0.00
2022-07-29T00:45:24.959Z,0.00
2022-07-29T00:46:25.026Z,0.00
2022-07-29T00:47:24.951Z,0.00
2022-07-29T00:48:24.977Z,0.00
2022-07-29T00:49:25.072Z,0.00
2022-07-29T00:50:25.025Z,0.00
2022-07-29T00:51:25.008Z,0.00
2022-07-29T00:52:25.036Z,0.00
2022-07-29T00:53:25.075Z,0.00
2022-07-29T00:54:25.056Z,0.00
2022-07-29T00:55:25.089Z,0.00
2022-07-29T00:56:25.112Z,0.00
2022-07-29T00:57:25.131Z,0.00
2022-07-29T00:58:25.141Z,0.00
2022-07-29T00:59:25.162Z,0.00
2022-07-29T01:00:25.253Z,0.00
2022-07-29T01:01:25.207Z,0.00
2022-07-29T01:02:25.317Z,0.00
2022-07-29T01:03:25.213Z,0.00
2022-07-29T01:04:25.216Z,0.00
2022-07-29T01:05:25.249Z,0.00
2022-07-29T01:06:25.280Z,0.00
2022-07-29T01:07:25.253Z,0.00
2022-07-29T01:08:25.285Z,0.00
2022-07-29T01:09:42.136Z,0.00
2022-07-29T01:10:25.305Z,0.00
2022-07-29T01:11:25.314Z,0.00
2022-07-29T01:12:25.278Z,0.00
2022-07-29T01:13:25.299Z,0.00
2022-07-29T01:14:25.326Z,0.00
2022-07-29T01:15:25.354Z,0.00
2022-07-29T01:16:25.429Z,0.00
2022-07-29T01:17:25.406Z,0.00
2022-07-29T01:18:25.436Z,0.00
2022-07-29T01:19:25.454Z,0.00
2022-07-29T01:20:25.486Z,0.00
2022-07-29T01:21:25.509Z,0.00
2022-07-29T01:22:25.500Z,0.00
2022-07-29T01:23:25.531Z,0.00
2022-07-29T01:24:25.545Z,0.00
2022-07-29T01:25:25.570Z,0.00
2022-07-29T01:26:25.595Z,0.00
2022-07-29T01:27:25.597Z,0.00
2022-07-29T01:28:25.620Z,0.00
2022-07-29T01:29:25.616Z,0.00
2022-07-29T01:30:25.651Z,0.00
2022-07-29T01:31:26.450Z,0.00
2022-07-29T01:32:28.741Z,0.00
2022-07-29T01:33:25.726Z,0.00
2022-07-29T01:34:25.745Z,0.00
2022-07-29T01:35:25.780Z,0.00
2022-07-29T01:36:27.176Z,0.00
2022-07-29T01:37:25.795Z,0.00
2022-07-29T01:38:25.827Z,0.00
2022-07-29T01:39:25.819Z,0.00
2022-07-29T01:40:25.854Z,0.00
2022-07-29T01:41:25.912Z,0.00
2022-07-29T01:42:25.887Z,0.00
2022-07-29T01:43:25.911Z,0.00
2022-07-29T01:44:25.927Z,0.00
2022-07-29T01:45:25.943Z,0.00
2022-07-29T01:46:26.089Z,0.00
2022-07-29T01:47:25.980Z,0.00
2022-07-29T01:48:26.002Z,0.00
2022-07-29T01:49:26.107Z,0.00
2022-07-29T01:50:26.054Z,0.00
2022-07-29T01:51:26.081Z,0.00
2022-07-29T01:52:26.081Z,0.00
2022-07-29T01:53:26.097Z,0.00
2022-07-29T01:54:26.131Z,0.00
2022-07-29T01:55:26.107Z,0.00
2022-07-29T01:56:26.146Z,0.00
2022-07-29T01:57:26.127Z,0.00
2022-07-29T01:58:26.168Z,0.00
2022-07-29T01:59:26.204Z,0.00
2022-07-29T02:00:26.214Z,0.00
2022-07-29T02:01:26.291Z,0.00
2022-07-29T02:02:26.247Z,0.00
2022-07-29T02:03:26.232Z,0.00
2022-07-29T02:04:29.612Z,0.00
2022-07-29T02:05:26.308Z,0.00
2022-07-29T02:06:26.308Z,0.00
2022-07-29T02:07:26.295Z,0.00
2022-07-29T02:08:26.310Z,0.00
2022-07-29T02:09:26.338Z,0.00
2022-07-29T02:10:26.405Z,0.00
2022-07-29T02:11:26.400Z,0.00
2022-07-29T02:12:26.397Z,0.00
2022-07-29T02:13:26.423Z,0.00
2022-07-29T02:14:26.447Z,0.00
2022-07-29T02:15:26.486Z,0.00
2022-07-29T02:16:26.638Z,0.00
2022-07-29T02:17:26.533Z,0.00
2022-07-29T02:18:26.558Z,0.00
2022-07-29T02:19:26.578Z,0.00
2022-07-29T02:20:26.625Z,0.00
2022-07-29T02:21:26.651Z,0.00
2022-07-29T02:22:26.628Z,0.00
2022-07-29T02:23:26.672Z,0.00
2022-07-29T02:24:26.692Z,0.00
2022-07-29T02:25:38.166Z,0.00
2022-07-29T02:26:26.761Z,0.00
2022-07-29T02:27:26.733Z,0.00
2022-07-29T02:28:26.763Z,0.00
2022-07-29T02:29:26.781Z,0.00
2022-07-29T02:30:26.778Z,0.00
2022-07-29T02:31:26.934Z,0.00
2022-07-29T02:32:26.856Z,0.00
2022-07-29T02:33:26.867Z,0.00
2022-07-29T02:34:26.897Z,0.00
2022-07-29T02:35:26.949Z,0.00
2022-07-29T02:36:26.927Z,0.00
2022-07-29T02:37:26.907Z,0.00
2022-07-29T02:38:26.948Z,0.00
2022-07-29T02:39:26.941Z,0.00
2022-07-29T02:40:26.961Z,0.00
2022-07-29T02:41:26.946Z,0.00
2022-07-29T02:42:26.974Z,0.00
2022-07-29T02:43:26.989Z,0.00
2022-07-29T02:44:30.075Z,0.00
2022-07-29T02:45:27.074Z,0.00
2022-07-29T02:46:29.060Z,0.00
2022-07-29T02:47:27.095Z,0.00
2022-07-29T02:48:27.117Z,0.00
2022-07-29T02:49:27.143Z,0.00
2022-07-29T02:50:27.107Z,0.00
2022-07-29T02:51:43.520Z,0.00
2022-07-29T02:52:27.133Z,0.00
2022-07-29T02:53:27.152Z,0.00
2022-07-29T02:54:27.190Z,0.00
2022-07-29T02:55:27.169Z,0.00
2022-07-29T02:56:27.213Z,0.00
2022-07-29T02:57:27.263Z,0.00
2022-07-29T02:58:27.242Z,0.00
2022-07-29T02:59:27.269Z,0.00
2022-07-29T03:00:27.295Z,0.00
2022-07-29T03:01:27.403Z,0.00
2022-07-29T03:02:27.351Z,0.00
2022-07-29T03:03:27.390Z,0.00
2022-07-29T03:04:27.450Z,0.00
2022-07-29T03:05:27.358Z,0.00
2022-07-29T03:06:28.726Z,0.00
2022-07-29T03:07:27.368Z,0.00
2022-07-29T03:08:27.401Z,0.00
2022-07-29T03:09:27.438Z,0.00
2022-07-29T03:10:27.460Z,0.00
2022-07-29T03:11:40.151Z,0.00
2022-07-29T03:12:27.466Z,0.00
2022-07-29T03:13:27.501Z,0.00
2022-07-29T03:14:27.522Z,0.00
2022-07-29T03:15:27.560Z,0.00
2022-07-29T03:16:27.666Z,0.00
2022-07-29T03:17:27.571Z,0.00
2022-07-29T03:18:27.609Z,0.00
2022-07-29T03:19:27.633Z,0.00
2022-07-29T03:20:27.665Z,1.00
2022-07-29T03:21:27.702Z,1.00
2022-07-29T03:22:27.719Z,1.00
2022-07-29T03:23:27.751Z,0.00
2022-07-29T03:24:27.781Z,1.00
2022-07-29T03:25:27.786Z,1.00
2022-07-29T03:26:27.813Z,2.00
2022-07-29T03:27:27.844Z,1.00
2022-07-29T03:28:27.891Z,2.00
2022-07-29T03:29:33.156Z,3.00
2022-07-29T03:30:27.905Z,2.00
2022-07-29T03:31:28.033Z,3.00
2022-07-29T03:32:27.914Z,3.00
2022-07-29T03:33:27.923Z,4.00
2022-07-29T03:34:27.944Z,4.00
2022-07-29T03:35:27.966Z,5.00
2022-07-29T03:36:28.003Z,5.00
2022-07-29T03:37:28.027Z,5.00
2022-07-29T03:38:28.060Z,6.00
2022-07-29T03:39:28.038Z,7.00
2022-07-29T03:40:28.030Z,7.00
2022-07-29T03:41:28.075Z,8.00
2022-07-29T03:42:33.841Z,9.00
2022-07-29T03:43:28.130Z,10.00
2022-07-29T03:44:28.109Z,11.00
2022-07-29T03:45:28.141Z,12.00
2022-07-29T03:46:28.180Z,13.00
2022-07-29T03:47:43.687Z,14.00
2022-07-29T03:48:28.130Z,16.00
2022-07-29T03:49:28.220Z,16.00
2022-07-29T03:50:28.199Z,17.00
2022-07-29T03:51:33.840Z,19.00
2022-07-29T03:52:28.199Z,20.00
2022-07-29T03:53:28.222Z,22.00
2022-07-29T03:54:28.257Z,23.00
2022-07-29T03:55:28.281Z,24.00
2022-07-29T03:56:28.258Z,26.00
2022-07-29T03:57:28.293Z,28.00
2022-07-29T03:58:28.325Z,31.00
2022-07-29T03:59:28.355Z,33.00
2022-07-29T04:00:28.395Z,35.00
2022-07-29T04:01:28.404Z,38.00
2022-07-29T04:02:30.727Z,41.00
2022-07-29T04:03:28.533Z,44.00
2022-07-29T04:04:28.435Z,46.00
2022-07-29T04:05:28.476Z,50.00
2022-07-29T04:06:28.452Z,53.00
2022-07-29T04:07:28.481Z,56.00
2022-07-29T04:08:28.511Z,57.00
2022-07-29T04:09:28.496Z,59.00
2022-07-29T04:10:31.567Z,61.00
2022-07-29T04:11:28.523Z,64.00
2022-07-29T04:12:28.548Z,68.00
2022-07-29T04:13:28.580Z,72.00
2022-07-29T04:14:28.615Z,77.00
2022-07-29T04:15:31.044Z,83.00
2022-07-29T04:16:28.701Z,89.00
2022-07-29T04:17:28.612Z,92.00
2022-07-29T04:18:28.645Z,94.00
2022-07-29T04:19:28.638Z,101.00
2022-07-29T04:20:28.664Z,105.00
2022-07-29T04:21:28.687Z,108.00
2022-07-29T04:22:28.702Z,109.00
2022-07-29T04:23:28.737Z,112.00
2022-07-29T04:24:28.758Z,117.00
2022-07-29T04:25:28.803Z,121.00
2022-07-29T04:26:28.799Z,123.00
2022-07-29T04:27:28.793Z,124.00
2022-07-29T04:28:28.848Z,127.00
2022-07-29T04:29:28.877Z,131.00
2022-07-29T04:30:28.923Z,134.00
2022-07-29T04:31:28.970Z,138.00
2022-07-29T04:32:28.919Z,140.00
2022-07-29T04:33:28.961Z,137.00
2022-07-29T04:34:28.989Z,139.00
2022-07-29T04:35:29.010Z,140.00
2022-07-29T04:36:30.078Z,144.00
2022-07-29T04:37:29.045Z,150.00
2022-07-29T04:38:29.029Z,155.00
2022-07-29T04:39:30.477Z,158.00
2022-07-29T04:40:29.037Z,162.00
2022-07-29T04:41:32.719Z,164.00
2022-07-29T04:42:29.435Z,167.00
2022-07-29T04:43:29.077Z,166.00
2022-07-29T04:44:29.226Z,168.00
2022-07-29T04:45:29.115Z,173.00
2022-07-29T04:46:29.269Z,177.00
2022-07-29T04:47:29.091Z,180.00
2022-07-29T04:48:29.118Z,181.00
2022-07-29T04:49:29.188Z,184.00
2022-07-29T04:50:29.170Z,187.00
2022-07-29T04:51:29.145Z,190.00
2022-07-29T04:52:29.170Z,193.00
2022-07-29T04:53:29.199Z,197.00
2022-07-29T04:54:29.226Z,199.00
2022-07-29T04:55:29.234Z,202.00
2022-07-29T04:56:29.261Z,206.00
2022-07-29T04:57:29.275Z,208.00
2022-07-29T04:58:29.315Z,212.00
2022-07-29T04:59:29.336Z,217.00
2022-07-29T05:01:55.327Z,224.00
2022-07-29T05:02:55.425Z,228.00
2022-07-29T05:04:00.133Z,231.00
2022-07-29T05:04:55.244Z,236.00
2022-07-29T05:05:55.271Z,242.00
2022-07-29T05:06:55.292Z,246.00
2022-07-29T05:07:55.328Z,246.00
2022-07-29T05:08:55.359Z,251.00
2022-07-29T05:09:55.366Z,255.00
2022-07-29T05:10:55.404Z,263.00
2022-07-29T05:11:55.372Z,272.00
2022-07-29T05:12:55.400Z,283.00
2022-07-29T05:13:55.422Z,289.00
2022-07-29T05:14:55.440Z,296.00
2022-07-29T05:15:55.524Z,312.00
2022-07-29T05:16:55.442Z,319.00
2022-07-29T05:17:55.481Z,330.00
2022-07-29T05:18:55.501Z,341.00
2022-07-29T05:19:55.516Z,364.00
2022-07-29T05:20:55.546Z,386.00
2022-07-29T05:21:55.551Z,410.00
2022-07-29T05:22:55.591Z,431.00
2022-07-29T05:23:55.573Z,453.00
2022-07-29T05:24:55.582Z,468.00
2022-07-29T05:25:55.654Z,480.00
2022-07-29T05:26:55.649Z,484.00
2022-07-29T05:27:55.653Z,497.00
2022-07-29T05:28:55.669Z,503.00
2022-07-29T05:29:55.643Z,503.00
2022-07-29T05:30:55.893Z,495.00
2022-07-29T05:31:55.727Z,467.00
2022-07-29T05:32:55.719Z,458.00
2022-07-29T05:33:55.737Z,458.00
2022-07-29T05:34:55.757Z,762.00
2022-07-29T05:36:00.356Z,769.00
2022-07-29T05:36:55.786Z,765.00
2022-07-29T05:37:55.816Z,754.00
2022-07-29T05:38:55.816Z,737.00
2022-07-29T05:39:56.668Z,731.00
2022-07-29T05:40:55.845Z,745.00
2022-07-29T05:41:55.846Z,731.00
2022-07-29T05:42:55.879Z,722.00
2022-07-29T05:43:55.888Z,721.00
2022-07-29T05:44:55.917Z,718.00
2022-07-29T05:45:56.045Z,710.00
2022-07-29T05:46:55.971Z,706.00
2022-07-29T05:47:56.002Z,707.00
2022-07-29T05:48:56.010Z,708.00
2022-07-29T05:49:56.015Z,710.00
2022-07-29T05:50:56.089Z,713.00
2022-07-29T05:51:55.971Z,713.00
2022-07-29T05:52:55.976Z,712.00
2022-07-29T05:53:55.951Z,719.00
2022-07-29T05:54:55.965Z,721.00
2022-07-29T05:55:56.012Z,412.00
2022-07-29T05:56:55.991Z,413.00
2022-07-29T05:57:55.989Z,419.00
2022-07-29T05:58:56.142Z,428.00
2022-07-29T05:59:55.994Z,438.00
2022-07-29T06:00:56.061Z,445.00
2022-07-29T06:01:56.113Z,448.00
2022-07-29T06:02:56.005Z,448.00
2022-07-29T06:03:56.066Z,446.00
2022-07-29T06:04:56.194Z,445.00
2022-07-29T06:05:56.076Z,448.00
2022-07-29T06:06:56.055Z,445.00
2022-07-29T06:07:56.086Z,445.00
2022-07-29T06:08:56.111Z,453.00
2022-07-29T06:09:56.138Z,446.00
2022-07-29T06:10:56.148Z,435.00
2022-07-29T06:11:56.188Z,433.00
2022-07-29T06:12:56.161Z,431.00
2022-07-29T06:13:56.212Z,429.00
2022-07-29T06:14:56.226Z,430.00
2022-07-29T06:15:56.326Z,430.00
2022-07-29T06:16:56.252Z,430.00
2022-07-29T06:17:59.082Z,429.00
2022-07-29T06:18:56.291Z,423.00
2022-07-29T06:19:56.330Z,410.00
2022-07-29T06:20:56.337Z,424.00
2022-07-29T06:21:56.341Z,403.00
2022-07-29T06:22:56.363Z,423.00
2022-07-29T06:23:56.456Z,433.00
2022-07-29T06:24:56.363Z,416.00
2022-07-29T06:25:56.386Z,432.00
2022-07-29T06:26:56.372Z,420.00
2022-07-29T06:27:56.425Z,406.00
2022-07-29T06:28:56.393Z,435.00
2022-07-29T06:29:56.393Z,447.00
2022-07-29T06:30:56.502Z,466.00
2022-07-29T06:31:56.427Z,468.00
2022-07-29T06:32:56.448Z,471.00
2022-07-29T06:33:56.467Z,473.00
2022-07-29T06:35:11.790Z,475.00
2022-07-29T06:35:56.469Z,478.00
2022-07-29T06:36:56.519Z,481.00
2022-07-29T06:37:56.502Z,483.00
2022-07-29T06:38:56.517Z,486.00
2022-07-29T06:39:59.508Z,489.00
2022-07-29T06:40:56.534Z,493.00
2022-07-29T06:41:56.556Z,496.00
2022-07-29T06:42:56.591Z,501.00
2022-07-29T06:43:56.992Z,503.00
2022-07-29T06:44:56.591Z,507.00
2022-07-29T06:45:56.723Z,513.00
2022-07-29T06:46:56.595Z,517.00
2022-07-29T06:47:56.658Z,522.00
2022-07-29T06:48:56.690Z,527.00
2022-07-29T06:49:56.669Z,532.00
2022-07-29T06:50:56.683Z,536.00
2022-07-29T06:51:56.743Z,541.00
2022-07-29T06:52:56.721Z,545.00
2022-07-29T06:53:58.292Z,551.00
2022-07-29T06:54:56.773Z,551.00
2022-07-29T06:55:56.746Z,554.00
2022-07-29T06:56:56.771Z,558.00
2022-07-29T06:57:56.818Z,558.00
2022-07-29T06:58:56.793Z,569.00
2022-07-29T06:59:56.817Z,579.00
2022-07-29T07:00:56.951Z,591.00
2022-07-29T07:01:56.965Z,608.00
2022-07-29T07:02:56.937Z,620.00
2022-07-29T07:03:56.902Z,636.00
2022-07-29T07:04:56.915Z,663.00
2022-07-29T07:05:56.935Z,705.00
2022-07-29T07:06:56.966Z,753.00
2022-07-29T07:07:56.983Z,813.00
2022-07-29T07:08:57.012Z,873.00
2022-07-29T07:09:57.028Z,900.00
2022-07-29T07:10:57.059Z,895.00
2022-07-29T07:11:57.074Z,868.00
2022-07-29T07:12:57.110Z,821.00
2022-07-29T07:14:02.607Z,801.00
2022-07-29T07:14:57.146Z,841.00
2022-07-29T07:15:57.179Z,888.00
2022-07-29T07:16:57.274Z,926.00
2022-07-29T07:17:57.184Z,942.00
2022-07-29T07:18:57.252Z,930.00
2022-07-29T07:19:57.226Z,939.00
2022-07-29T07:20:57.265Z,952.00
2022-07-29T07:21:57.249Z,1002.00
2022-07-29T07:22:57.322Z,1086.00
2022-07-29T07:23:57.277Z,1133.00
2022-07-29T07:24:57.303Z,1096.00
2022-07-29T07:25:57.335Z,1126.00
2022-07-29T07:26:57.343Z,1115.00
2022-07-29T07:27:57.366Z,1079.00
2022-07-29T07:28:57.382Z,1063.00
2022-07-29T07:29:57.397Z,1055.00
2022-07-29T07:30:57.926Z,1039.00
2022-07-29T07:32:00.909Z,1000.00
2022-07-29T07:32:57.470Z,966.00
2022-07-29T07:33:57.471Z,970.00
2022-07-29T07:34:57.439Z,949.00
2022-07-29T07:35:57.479Z,938.00
2022-07-29T07:36:57.471Z,979.00
2022-07-29T07:37:57.459Z,1020.00
2022-07-29T07:38:57.500Z,1015.00
2022-07-29T07:39:57.476Z,961.00
2022-07-29T07:40:57.500Z,987.00
2022-07-29T07:41:57.523Z,1065.00
2022-07-29T07:42:57.552Z,1091.00
2022-07-29T07:43:57.574Z,1117.00
2022-07-29T07:45:13.034Z,1150.00
2022-07-29T07:45:57.662Z,1166.00
2022-07-29T07:46:57.645Z,1212.00
2022-07-29T07:47:57.611Z,1271.00
2022-07-29T07:48:57.708Z,1306.00
2022-07-29T07:49:57.637Z,1316.00
2022-07-29T07:50:57.675Z,1298.00
2022-07-29T07:51:57.703Z,1256.00
2022-07-29T07:52:57.674Z,1171.00
2022-07-29T07:53:57.770Z,1058.00
2022-07-29T07:54:57.696Z,965.00
2022-07-29T07:56:10.442Z,894.00
2022-07-29T07:56:57.741Z,895.00
2022-07-29T07:57:57.773Z,922.00
2022-07-29T07:58:57.780Z,908.00
2022-07-29T07:59:57.793Z,923.00
2022-07-29T08:00:57.886Z,966.00
2022-07-29T08:01:57.992Z,1039.00
2022-07-29T08:02:57.982Z,1073.00
2022-07-29T08:03:57.871Z,1066.00
2022-07-29T08:04:57.892Z,1096.00
2022-07-29T08:05:57.898Z,1116.00
2022-07-29T08:06:57.921Z,1114.00
2022-07-29T08:07:57.925Z,1072.00
2022-07-29T08:09:19.539Z,1037.00
2022-07-29T08:09:57.944Z,1000.00
2022-07-29T08:10:57.968Z,922.00
2022-07-29T08:11:58.158Z,918.00
2022-07-29T08:12:58.047Z,937.00
2022-07-29T08:13:58.178Z,989.00
2022-07-29T08:14:57.967Z,1082.00
2022-07-29T08:15:57.971Z,1146.00
2022-07-29T08:16:58.052Z,1237.00
2022-07-29T08:17:57.979Z,1288.00
2022-07-29T08:18:58.008Z,1330.00
2022-07-29T08:19:58.061Z,1386.00
2022-07-29T08:20:58.137Z,1401.00
2022-07-29T08:21:58.110Z,1424.00
2022-07-29T08:22:58.088Z,1410.00
2022-07-29T08:24:01.780Z,1379.00
2022-07-29T08:24:58.090Z,1335.00
2022-07-29T08:25:58.113Z,1307.00
2022-07-29T08:26:58.124Z,1285.00
2022-07-29T08:27:58.153Z,1283.00
2022-07-29T08:28:58.243Z,1284.00
2022-07-29T08:29:58.221Z,1325.00
2022-07-29T08:30:58.200Z,1348.00
2022-07-29T08:31:58.250Z,1337.00
2022-07-29T08:32:58.287Z,1288.00
2022-07-29T08:33:58.271Z,1242.00
2022-07-29T08:34:58.250Z,1168.00
2022-07-29T08:35:58.289Z,1150.00
2022-07-29T08:36:58.359Z,1109.00
2022-07-29T08:37:58.320Z,1087.00
2022-07-29T08:38:58.393Z,1065.00
2022-07-29T08:39:58.399Z,1035.00
2022-07-29T08:40:58.369Z,1034.00
2022-07-29T08:41:58.531Z,1007.00
2022-07-29T08:42:58.398Z,955.00
2022-07-29T08:43:58.412Z,918.00
2022-07-29T08:44:58.458Z,922.00
2022-07-29T08:45:58.564Z,919.00
2022-07-29T08:46:58.534Z,912.00
2022-07-29T08:47:58.494Z,956.00
2022-07-29T08:48:58.581Z,1018.00
2022-07-29T08:49:58.575Z,1075.00
2022-07-29T08:50:58.539Z,1129.00
2022-07-29T08:51:59.003Z,1176.00
2022-07-29T08:52:59.992Z,1211.00
2022-07-29T08:53:58.561Z,1257.00
2022-07-29T08:54:58.595Z,1292.00
2022-07-29T08:55:58.629Z,1309.00
2022-07-29T08:56:58.658Z,1306.00
2022-07-29T08:57:58.662Z,1289.00
2022-07-29T08:58:58.679Z,1247.00
2022-07-29T08:59:58.700Z,1202.00
2022-07-29T09:00:58.763Z,1163.00
2022-07-29T09:01:59.230Z,1102.00
2022-07-29T09:02:58.713Z,1054.00
2022-07-29T09:03:58.791Z,1010.00
2022-07-29T09:04:58.745Z,969.00
2022-07-29T09:05:58.815Z,918.00
2022-07-29T09:06:58.776Z,889.00
2022-07-29T09:07:58.809Z,886.00
2022-07-29T09:08:58.799Z,893.00
2022-07-29T09:09:58.799Z,927.00
2022-07-29T09:10:58.852Z,986.00
2022-07-29T09:11:58.814Z,1045.00
2022-07-29T09:12:58.838Z,1117.00
2022-07-29T09:13:58.856Z,1188.00
2022-07-29T09:14:58.859Z,1266.00
2022-07-29T09:15:59.010Z,1286.00
2022-07-29T09:16:58.935Z,1305.00
2022-07-29T09:17:58.898Z,1314.00
2022-07-29T09:18:58.910Z,1309.00
2022-07-29T09:19:58.873Z,1303.00
2022-07-29T09:20:58.873Z,1291.00
2022-07-29T09:21:58.922Z,1311.00
2022-07-29T09:22:58.931Z,1335.00
2022-07-29T09:23:58.945Z,1327.00
2022-07-29T09:24:58.972Z,1301.00
2022-07-29T09:25:58.989Z,1275.00
2022-07-29T09:26:59.018Z,1227.00
2022-07-29T09:27:59.004Z,1170.00
2022-07-29T09:28:59.037Z,1119.00
2022-07-29T09:29:59.042Z,1082.00
2022-07-29T09:30:59.055Z,1069.00
2022-07-29T09:31:59.187Z,1045.00
2022-07-29T09:32:59.084Z,998.00
2022-07-29T09:33:59.113Z,887.00
2022-07-29T09:34:59.168Z,778.00
2022-07-29T09:35:59.145Z,695.00
2022-07-29T09:36:59.223Z,646.00
2022-07-29T09:37:59.185Z,626.00
2022-07-29T09:38:59.205Z,616.00
2022-07-29T09:39:59.209Z,613.00
2022-07-29T09:41:05.589Z,616.00
2022-07-29T09:41:59.214Z,619.00
2022-07-29T09:42:59.226Z,622.00
2022-07-29T09:43:59.265Z,638.00
2022-07-29T09:44:59.294Z,663.00
2022-07-29T09:45:59.260Z,674.00
2022-07-29T09:46:59.406Z,850.00
2022-07-29T09:47:59.415Z,648.00
2022-07-29T09:48:59.404Z,869.00
2022-07-29T09:49:59.478Z,658.00
2022-07-29T09:50:59.351Z,667.00
2022-07-29T09:51:59.312Z,725.00
2022-07-29T09:52:59.345Z,770.00
2022-07-29T09:53:59.377Z,810.00
2022-07-29T09:54:59.380Z,784.00
2022-07-29T09:55:59.422Z,742.00
2022-07-29T09:56:59.409Z,770.00
2022-07-29T09:57:59.407Z,808.00
2022-07-29T09:58:59.433Z,896.00
2022-07-29T09:59:59.450Z,1007.00
2022-07-29T10:00:59.652Z,1312.00
2022-07-29T10:01:59.500Z,1315.00
2022-07-29T10:02:59.542Z,1482.00
2022-07-29T10:03:59.505Z,1567.00
2022-07-29T10:04:59.510Z,1755.00
2022-07-29T10:05:59.530Z,1679.00
2022-07-29T10:07:04.342Z,1906.00
2022-07-29T10:07:59.568Z,1431.00
2022-07-29T10:08:59.594Z,1292.00
2022-07-29T10:09:59.621Z,1198.00
2022-07-29T10:10:59.641Z,1208.00
2022-07-29T10:11:59.867Z,1229.00
2022-07-29T10:13:04.392Z,1174.00
2022-07-29T10:13:59.701Z,1123.00
2022-07-29T10:14:59.725Z,1067.00
2022-07-29T10:15:59.784Z,1030.00
2022-07-29T10:16:59.716Z,976.00
2022-07-29T10:17:59.747Z,1041.00
2022-07-29T10:18:59.761Z,938.00
2022-07-29T10:19:59.778Z,917.00
2022-07-29T10:20:59.810Z,925.00
2022-07-29T10:22:00.253Z,948.00
2022-07-29T10:22:59.808Z,984.00
2022-07-29T10:24:01.331Z,1007.00
2022-07-29T10:24:59.849Z,998.00
2022-07-29T10:25:59.868Z,960.00
2022-07-29T10:26:59.876Z,953.00
2022-07-29T10:27:59.915Z,944.00
2022-07-29T10:28:59.929Z,951.00
2022-07-29T10:29:59.955Z,979.00
2022-07-29T10:31:00.020Z,1004.00
2022-07-29T10:32:00.003Z,1024.00
2022-07-29T10:32:59.988Z,1040.00
2022-07-29T10:34:00.001Z,1069.00
2022-07-29T10:35:00.026Z,1015.00
2022-07-29T10:36:00.033Z,976.00
2022-07-29T10:37:00.040Z,987.00
2022-07-29T10:38:00.020Z,1014.00
2022-07-29T10:39:00.026Z,1048.00
2022-07-29T10:40:00.035Z,1046.00
2022-07-29T10:41:00.077Z,1075.00
2022-07-29T10:42:00.105Z,1091.00
2022-07-29T10:43:00.099Z,1123.00
2022-07-29T10:44:00.110Z,1148.00
2022-07-29T10:45:00.122Z,1099.00
2022-07-29T10:46:00.144Z,1049.00
2022-07-29T10:47:00.240Z,1042.00
2022-07-29T10:48:00.210Z,1057.00
2022-07-29T10:49:00.283Z,1091.00
2022-07-29T10:50:01.325Z,1116.00
2022-07-29T10:51:00.206Z,1187.00
2022-07-29T10:52:00.188Z,1198.00
2022-07-29T10:53:00.168Z,1208.00
2022-07-29T10:54:00.191Z,1298.00
2022-07-29T10:55:00.223Z,1263.00
2022-07-29T10:56:00.184Z,1226.00
2022-07-29T10:57:00.190Z,1195.00
2022-07-29T10:58:00.203Z,1271.00
2022-07-29T10:59:00.220Z,1117.00
2022-07-29T11:00:00.235Z,1078.00
2022-07-29T11:01:00.246Z,1046.00
2022-07-29T11:02:35.343Z,1010.00
2022-07-29T11:03:00.440Z,1058.00
2022-07-29T11:04:00.294Z,1068.00
2022-07-29T11:05:00.318Z,1148.00
2022-07-29T11:06:00.358Z,1640.00
2022-07-29T11:07:00.331Z,1143.00
2022-07-29T11:08:00.309Z,1325.00
2022-07-29T11:09:00.328Z,1200.00
2022-07-29T11:10:00.375Z,1271.00
2022-07-29T11:11:00.337Z,1149.00
2022-07-29T11:12:00.829Z,1513.00
2022-07-29T11:13:00.351Z,1316.00
2022-07-29T11:14:00.363Z,1232.00
2022-07-29T11:15:00.501Z,1685.00
2022-07-29T11:16:00.514Z,1686.00
2022-07-29T11:17:00.405Z,1362.00
2022-07-29T11:18:00.497Z,1603.00
2022-07-29T11:19:00.464Z,1722.00
2022-07-29T11:20:00.431Z,1566.00
2022-07-29T11:21:00.469Z,1349.00
2022-07-29T11:22:00.546Z,1421.00
2022-07-29T11:23:00.471Z,1354.00
2022-07-29T11:24:00.487Z,1437.00
2022-07-29T11:25:00.509Z,1550.00
2022-07-29T11:26:00.522Z,1581.00
2022-07-29T11:27:00.797Z,1717.00
2022-07-29T11:28:00.515Z,1383.00
2022-07-29T11:29:00.541Z,1295.00
2022-07-29T11:30:01.293Z,1256.00
2022-07-29T11:31:00.576Z,1215.00
2022-07-29T11:32:00.603Z,1565.00
2022-07-29T11:33:00.627Z,1508.00
2022-07-29T11:34:05.523Z,1275.00
2022-07-29T11:35:00.663Z,1451.00
2022-07-29T11:36:03.318Z,1459.00
2022-07-29T11:37:00.730Z,1067.00
2022-07-29T11:38:00.752Z,1421.00
2022-07-29T11:39:00.723Z,1441.00
2022-07-29T11:40:01.920Z,1464.00
2022-07-29T11:41:00.748Z,1453.00
2022-07-29T11:42:04.960Z,1447.00
2022-07-29T11:43:00.794Z,1443.00
2022-07-29T11:44:00.802Z,1424.00
2022-07-29T11:45:08.864Z,1423.00
2022-07-29T11:46:00.796Z,1443.00
2022-07-29T11:47:00.776Z,1468.00
2022-07-29T11:48:27.827Z,1488.00
2022-07-29T11:49:00.853Z,1454.00
2022-07-29T11:50:00.832Z,1663.00
2022-07-29T11:51:00.944Z,1680.00
2022-07-29T11:52:01.190Z,1779.00
2022-07-29T11:53:00.909Z,1781.00
2022-07-29T11:54:05.321Z,1796.00
2022-07-29T11:55:09.668Z,329.00
2022-07-29T11:56:00.936Z,258.00
2022-07-29T11:57:01.180Z,260.00
2022-07-29T11:58:03.481Z,262.00
2022-07-29T11:59:00.981Z,264.00
2022-07-29T12:00:09.328Z,266.00
2022-07-29T12:01:05.056Z,271.00
2022-07-29T12:02:36.761Z,295.00
2022-07-29T12:03:01.130Z,318.00
2022-07-29T12:04:01.177Z,315.00
2022-07-29T12:05:01.117Z,325.00
2022-07-29T12:06:01.136Z,322.00
2022-07-29T12:07:01.145Z,328.00
2022-07-29T12:08:01.233Z,296.00
2022-07-29T12:09:01.194Z,331.00
2022-07-29T12:10:01.186Z,274.00
2022-07-29T12:11:01.178Z,273.00
2022-07-29T12:12:05.351Z,269.00
2022-07-29T12:13:01.202Z,274.00
2022-07-29T12:14:01.245Z,303.00
2022-07-29T12:15:01.212Z,337.00
2022-07-29T12:16:01.273Z,276.00
2022-07-29T12:17:01.236Z,312.00
2022-07-29T12:18:04.017Z,347.00
2022-07-29T12:19:02.370Z,288.00
2022-07-29T12:20:01.252Z,283.00
2022-07-29T12:21:03.318Z,278.00
2022-07-29T12:22:02.337Z,270.00
2022-07-29T12:23:01.314Z,266.00
2022-07-29T12:24:09.397Z,265.00
2022-07-29T12:25:23.279Z,263.00
2022-07-29T12:26:01.353Z,258.00
2022-07-29T12:27:02.468Z,259.00
2022-07-29T12:28:01.349Z,260.00
2022-07-29T12:29:02.420Z,307.00
2022-07-29T12:30:01.387Z,237.00
2022-07-29T12:31:01.437Z,214.00
2022-07-29T12:32:01.802Z,202.00
2022-07-29T12:33:01.407Z,183.00
2022-07-29T12:34:01.419Z,173.00
2022-07-29T12:35:01.436Z,169.00
2022-07-29T12:36:12.882Z,164.00
2022-07-29T12:37:01.495Z,161.00
2022-07-29T12:38:01.511Z,159.00
2022-07-29T12:39:01.545Z,159.00